createdAt,value
2019-01-16T00:04:19.340Z,9.30
2019-01-16T00:09:39.653Z,7.53
2019-01-16T00:19:59.577Z,8.07
2019-01-16T00:25:20.716Z,7.10
2019-01-16T00:30:50.166Z,5.30
2019-01-16T00:36:05.727Z,6.70
2019-01-16T00:41:24.400Z,6.78
2019-01-16T00:46:35.328Z,5.87
2019-01-16T00:51:54.760Z,4.37
2019-01-16T00:57:04.292Z,4.87
2019-01-16T01:02:12.285Z,5.73
2019-01-16T01:07:25.467Z,7.03
2019-01-16T01:12:45.981Z,5.70
2019-01-16T01:18:16.025Z,3.57
2019-01-16T01:23:36.632Z,6.03
2019-01-16T01:28:43.528Z,5.27
2019-01-16T01:33:49.704Z,3.43
2019-01-16T01:38:58.537Z,5.67
2019-01-16T01:44:06.469Z,4.57
2019-01-16T01:54:28.442Z,3.87
2019-01-16T01:59:36.449Z,4.47
2019-01-16T02:10:08.054Z,4.87
2019-01-16T02:15:29.586Z,5.50
2019-01-16T02:20:40.385Z,5.55
2019-01-16T02:26:04.775Z,3.27
2019-01-16T02:31:12.700Z,3.67
2019-01-16T02:36:21.530Z,4.53
2019-01-16T02:41:29.448Z,3.13
2019-01-16T02:51:57.362Z,4.10
2019-01-16T02:57:05.334Z,2.37
2019-01-16T03:02:13.317Z,4.30
2019-01-16T03:12:32.055Z,2.80
2019-01-16T03:22:59.719Z,3.17
2019-01-16T03:28:07.418Z,3.35
2019-01-16T03:33:22.607Z,3.67
2019-01-16T03:38:36.667Z,1.65
2019-01-16T03:49:13.701Z,3.23
2019-01-16T03:54:21.408Z,1.80
2019-01-16T03:59:29.433Z,1.70
2019-01-16T04:04:37.753Z,1.63
2019-01-16T04:10:01.745Z,2.80
2019-01-16T04:15:25.844Z,2.60
2019-01-16T04:20:43.386Z,2.90
2019-01-16T04:31:01.064Z,2.63
2019-01-16T04:36:25.564Z,2.43
2019-01-16T04:41:39.624Z,2.20
2019-01-16T04:51:58.999Z,2.67
2019-01-16T04:57:07.372Z,1.97
2019-01-16T05:02:27.685Z,2.10
2019-01-16T05:12:53.449Z,2.47
2019-01-16T05:18:01.661Z,2.57
2019-01-16T05:28:15.551Z,2.60
2019-01-16T05:33:26.334Z,3.10
2019-01-16T05:43:49.317Z,2.73
2019-01-16T05:49:03.398Z,3.17
2019-01-16T05:54:14.083Z,3.37
2019-01-16T05:59:38.374Z,3.30
2019-01-16T06:04:58.382Z,3.13
2019-01-16T06:10:24.723Z,4.70
2019-01-16T06:15:30.802Z,3.67
2019-01-16T06:20:47.721Z,2.43
2019-01-16T06:31:35.715Z,2.17
2019-01-16T06:36:58.962Z,2.42
2019-01-16T06:42:09.674Z,2.93
2019-01-16T06:52:29.396Z,3.73
2019-01-16T06:57:52.985Z,2.37
2019-01-16T07:03:00.944Z,2.87
2019-01-16T07:13:16.730Z,1.87
2019-01-16T07:23:30.720Z,2.60
2019-01-16T07:28:45.796Z,2.40
2019-01-16T07:33:53.725Z,1.90
2019-01-16T07:39:17.614Z,1.82
2019-01-16T07:44:38.985Z,1.83
2019-01-16T07:49:55.997Z,1.50
2019-01-16T07:55:09.822Z,1.90
2019-01-16T08:00:17.643Z,1.77
2019-01-16T08:05:28.621Z,1.95
2019-01-16T08:10:53.051Z,1.70
2019-01-16T08:21:41.734Z,1.80
2019-01-16T08:26:53.741Z,1.95
2019-01-16T08:43:06.925Z,1.57
2019-01-16T08:48:19.068Z,2.17
2019-01-16T08:53:43.776Z,1.73
2019-01-16T08:58:51.794Z,1.80
2019-01-16T09:03:59.706Z,2.00
2019-01-16T09:09:14.393Z,2.87
2019-01-16T09:14:22.422Z,1.90
2019-01-16T09:19:30.602Z,1.10
2019-01-16T09:24:55.043Z,1.80
2019-01-16T09:30:05.975Z,1.20
2019-01-16T09:35:20.391Z,1.45
2019-01-16T09:40:44.686Z,1.60
2019-01-16T09:51:16.712Z,2.13
2019-01-16T10:01:33.427Z,2.07
2019-01-16T10:06:59.802Z,2.33
2019-01-16T10:12:08.991Z,1.57
2019-01-16T10:17:19.853Z,1.50
2019-01-16T10:22:30.517Z,2.20
2019-01-16T10:27:44.687Z,2.80
2019-01-16T10:38:00.310Z,2.77
2019-01-16T10:43:17.465Z,7.87
2019-01-16T10:48:34.490Z,2.73
2019-01-16T10:53:54.953Z,3.67
2019-01-16T10:59:19.491Z,1.70
2019-01-16T11:04:27.812Z,2.97
2019-01-16T11:09:53.936Z,3.80
2019-01-16T11:20:15.316Z,4.60
2019-01-16T11:25:23.335Z,3.17
2019-01-16T11:30:40.469Z,2.47
2019-01-16T11:36:07.276Z,4.13
2019-01-16T11:41:15.277Z,3.30
2019-01-16T11:52:06.031Z,3.98
2019-01-16T11:57:16.680Z,3.63
2019-01-16T12:07:35.383Z,4.33
2019-01-16T12:12:56.018Z,4.40
2019-01-16T12:18:13.037Z,3.33
2019-01-16T12:23:24.036Z,2.70
2019-01-16T12:28:47.699Z,3.67
2019-01-16T12:33:55.976Z,3.25
2019-01-16T12:39:16.438Z,6.73
2019-01-16T12:44:27.277Z,6.63
2019-01-16T12:49:47.330Z,8.97
2019-01-16T12:54:59.795Z,4.70
2019-01-16T13:00:20.996Z,3.80
2019-01-16T13:05:35.340Z,5.00
2019-01-16T13:10:59.747Z,5.28
2019-01-16T13:21:27.559Z,5.60
2019-01-16T13:32:11.273Z,7.70
2019-01-16T13:37:19.364Z,4.17
2019-01-16T13:42:25.633Z,5.25
2019-01-16T13:47:36.622Z,4.43
2019-01-16T13:57:50.326Z,6.13
2019-01-16T14:02:58.340Z,6.45
2019-01-16T14:08:18.734Z,7.47
2019-01-16T14:13:43.088Z,3.85
2019-01-16T14:18:51.055Z,4.97
2019-01-16T14:24:04.714Z,5.50
2019-01-16T14:29:12.809Z,7.62
2019-01-16T14:34:36.274Z,6.27
2019-01-16T14:39:45.362Z,6.80
2019-01-16T14:44:53.382Z,7.80
2019-01-16T14:50:08.563Z,8.20
2019-01-16T14:55:29.286Z,8.73
2019-01-16T15:00:52.664Z,9.40
2019-01-16T15:11:31.051Z,7.15
2019-01-16T15:16:39.845Z,10.43
2019-01-16T15:21:53.519Z,7.92
2019-01-16T15:27:04.399Z,8.03
2019-01-16T15:32:28.382Z,10.33
2019-01-16T15:37:48.685Z,9.27
2019-01-16T15:43:15.651Z,12.57
2019-01-16T15:48:39.400Z,13.37
2019-01-16T15:53:51.352Z,10.53
2019-01-16T15:59:02.291Z,13.37
2019-01-16T16:04:28.684Z,12.80
2019-01-16T16:14:45.347Z,20.50
2019-01-16T16:19:53.354Z,19.73
2019-01-16T16:25:03.987Z,18.63
2019-01-16T16:30:18.285Z,20.60
2019-01-16T16:35:38.407Z,21.80
2019-01-16T16:41:02.987Z,28.57
2019-01-16T16:46:17.279Z,20.47
2019-01-16T16:51:40.655Z,27.90
2019-01-16T17:07:18.444Z,23.93
2019-01-16T17:12:26.591Z,21.10
2019-01-16T17:17:51.059Z,25.30
2019-01-16T17:28:35.950Z,50.40
2019-01-16T17:33:43.971Z,23.27
2019-01-16T17:38:51.932Z,19.53
2019-01-16T17:44:16.414Z,27.47
2019-01-16T17:49:24.743Z,20.93
2019-01-16T17:54:32.667Z,19.40
2019-01-16T17:59:48.290Z,20.48
2019-01-16T18:05:02.420Z,19.17
2019-01-16T18:10:10.289Z,14.90
2019-01-16T18:15:18.357Z,14.80
2019-01-16T18:25:50.670Z,13.43
2019-01-16T18:36:09.291Z,17.83
2019-01-16T18:41:29.370Z,15.00
2019-01-16T18:46:40.471Z,18.77
2019-01-16T18:51:52.576Z,17.57
2019-01-16T18:57:18.726Z,13.73
2019-01-16T19:02:32.783Z,13.78
2019-01-16T19:07:54.329Z,16.33
2019-01-16T19:13:11.448Z,15.38
2019-01-16T19:18:20.507Z,14.23
2019-01-16T19:23:28.514Z,12.50
2019-01-16T19:28:42.677Z,23.02
2019-01-16T19:39:14.788Z,17.60
2019-01-16T19:44:42.002Z,13.73
2019-01-16T19:49:59.300Z,25.63
2019-01-16T19:55:09.995Z,8.37
2019-01-16T20:00:24.290Z,10.08
2019-01-16T20:05:41.723Z,10.67
2019-01-16T20:10:53.395Z,16.93
2019-01-16T20:16:01.398Z,9.77
2019-01-16T20:21:26.275Z,7.78
2019-01-16T20:26:32.388Z,8.20
2019-01-16T20:31:49.424Z,8.63
2019-01-16T20:37:09.726Z,6.13
2019-01-16T20:47:23.513Z,9.40
2019-01-16T20:52:47.508Z,6.83
2019-01-16T20:57:53.681Z,9.60
2019-01-16T21:03:20.550Z,10.53
2019-01-16T21:13:39.356Z,3.50
2019-01-16T21:18:49.981Z,3.58
2019-01-16T21:24:07.464Z,3.23
2019-01-16T21:29:15.698Z,3.07
2019-01-16T21:34:27.414Z,2.50
2019-01-16T21:39:44.911Z,4.17
2019-01-16T21:44:52.977Z,2.30
2019-01-16T21:50:18.700Z,2.33
2019-01-16T21:55:29.671Z,2.90
2019-01-16T22:05:55.933Z,2.17
2019-01-16T22:16:26.732Z,3.00
2019-01-16T22:21:51.278Z,2.80
2019-01-16T22:27:02.331Z,1.63
2019-01-16T22:32:19.667Z,2.60
2019-01-16T22:37:27.371Z,2.70
2019-01-16T22:42:50.706Z,1.95
2019-01-16T22:48:02.639Z,2.83
2019-01-16T22:53:13.654Z,2.50
2019-01-16T23:03:47.656Z,1.90
2019-01-16T23:14:15.443Z,2.33
2019-01-16T23:19:29.713Z,2.13
2019-01-16T23:24:37.405Z,2.95
2019-01-16T23:35:33.788Z,2.83
2019-01-16T23:40:59.338Z,1.80
2019-01-16T23:46:18.773Z,2.13
2019-01-16T23:51:33.078Z,2.80
